Tiempo atmosférico en la estación meteorológica de A Pobra de Trives, Ourense (840 m.)



Fecha
DESCASC
Temp. máxima en grados centígrados (hora)
DESCASC
Temp. mínima en grados centígrados (hora)
DESCASC
Temp. media en grados centígrados
DESCASC
Racha de viento máxima en m/sg (hora)
DESCASC
Velocidad máxima media en intervalos de 10 minutos(hora)
DESCASC
Precipitaciones diarias en mm
DESCASC
Precipitaciones de 00:00 a 06:00 en mm
DESCASC
Precipitaciones de 06:00 a 12:00 en mm
DESCASC
Precipitaciones de 12:00 a 18:00 en mm
DESCASC
Precipitaciones de 18:00 a 24:00 en mm
DESCASC
18-08-2019 20.8 (15:20) 13.1 (23:40) 16.9 7.5 (15:30) 3.61 (18:20) 9.8 0 4.2 5.6 0
17-08-2019 29.5 (14:50) 11.5 (06:10) 20.5 9.72 (16:00) 4.17 (16:00) 0 0 0 0 0
16-08-2019 29 (16:00) 11.3 (06:50) 20.2 8.06 (17:20) 3.89 (01:50) 0 0 0 0 0
15-08-2019 27.4 (15:40) 10.4 (00:00) 18.9 8.33 (17:00) 3.61 (17:40) 0 0 0 0 0
14-08-2019 26.7 (16:00) 10.4 (00:00) 18.6 8.61 (18:00) 3.61 (14:50) 0 0 0 0 0
13-08-2019 24.9 (18:00) 6.2 (00:00) 15.5 7.78 (17:40) 3.33 (18:30) 0 0 0 0 0
12-08-2019 20.1 (15:20) 9 (00:00) 14.6 7.78 (23:00) 3.33 (22:50) 0 0 0 0 0
11-08-2019 20.3 (14:40) 10.5 (00:00) 15.4 10.28 (17:10) 4.17 (17:10) 0 0 0 0 0
10-08-2019 22.4 (16:10) 9.5 (00:00) 15.9 7.78 (22:00) 3.33 (22:30) 0 0 0 0 0
09-08-2019 21.5 (15:00) 13.2 (00:00) 17.3 13.89 (16:30) 5.83 (17:10) 1.2 1 0.2 0 0
08-08-2019 26.8 (17:00) 16.2 (00:00) 21.5 15 (18:10) 6.11 (18:10) 0.2 0 0 0.2 0
07-08-2019 21.2 (14:10) 12.4 (00:00) 16.8 6.39 (01:00) 2.78 (00:50) 6.8 0 0 4.6 2.2
06-08-2019 23.4 (15:50) 13.3 (00:00) 18.3 10 (17:20) 4.44 (16:50) 0 0 0 0 0
05-08-2019 28 (17:50) 12.3 (00:00) 20.2 9.17 (20:50) 3.89 (20:50) 0 0 0 0 0
04-08-2019 27.1 (18:10) 15.4 (00:00) 21.3 9.17 (16:00) 3.61 (17:50) 0 0 0 0 0
03-08-2019 29.1 (17:30) 13 (00:00) 21.1 8.89 (15:50) 3.61 (16:00) 0 0 0 0 0
02-08-2019 29 (18:30) 11.9 (00:00) 20.4 8.06 (18:10) 3.61 (17:20) 0 0 0 0 0
01-08-2019 27 (18:10) 9.3 (00:00) 18.2 8.89 (23:00) 4.17 (22:20) 0 0 0 0 0
31-07-2019 24 (18:20) 7.3 (00:00) 15.7 9.72 (16:10) 3.89 (16:00) 0 0 0 0 0
30-07-2019 21.1 (18:00) 8.3 (00:00) 14.7 7.78 (17:20) 3.33 (23:50) 0 0 0 0 0
29-07-2019 20.7 (15:00) 11.7 (00:00) 16.2 9.72 (15:20) 4.44 (12:10) 0.4 0 0.4 0 0
28-07-2019 26.2 (18:20) 7.6 (00:00) 16.9 7.78 (16:20) 3.89 (23:20) 0 0 0 0 0
27-07-2019 21.1 (18:00) 11.9 (00:00) 16.5 8.89 (00:30) 3.89 (00:30) 0.4 0 0.2 0.2 0
26-07-2019 22.8 (17:30) 10.3 (00:00) 16.5 8.61 (15:00) 3.61 (14:50) 0 0 0 0 0
25-07-2019 27.3 (13:20) 13.9 (00:00) 20.6 10 (17:00) 4.44 (16:40) 1.6 0 0 0 1.6
24-07-2019 32 (17:50) 13.7 (00:00) 22.8 11.11 (15:00) 4.72 (21:30) 0 0 0 0 0
23-07-2019 31.5 (17:00) 18.3 (00:00) 24.9 10.83 (06:40) 5.28 (03:50) 0 0 0 0 0
22-07-2019 33.7 (18:10) 13.2 (00:00) 23.5 7.22 (22:50) 3.33 (23:00) 0 0 0 0 0
21-07-2019 28.2 (18:50) 12.4 (00:00) 20.3 8.06 (15:40) 3.89 (15:40) 0 0 0 0 0

Gráficas

Temp. máximas Temp. mínimas Temp. medias Precipitaciones Rachas de viento máximas Velocidades máximas media en intervalos de 10 minutos

Datos horarios

Fecha y hora oficial Temperatura (ºC) Velocidad del viento (km/h) Dirección del viento Racha (km/h) Dirección de racha Precipitación (mm) Presión (hPa) Tendencia (hPa) Humedad (%)
2019-08-19 23:00:00 13.6 12 Oeste 29 Oeste 0 924.1 1.2 79
2019-08-19 22:00:00 14.7 10 Oeste 23 Oeste 0 923.6 0.8 75
2019-08-19 21:00:00 16.1 10 Oeste 31 Oeste 0 923.3 0.5 71
2019-08-19 20:00:00 17.4 14 Oeste 29 Noroeste 0 922.9 -0.1 66
2019-08-19 19:00:00 19 11 Noroeste 29 Oeste 0 922.8 -0.4 60
2019-08-19 18:00:00 21.4 10 Oeste 26 Oeste 0 922.8 -0.6 44
2019-08-19 17:00:00 21.8 9 Oeste 24 Oeste 0 923 -0.9 44
2019-08-19 16:00:00 21.1 6 Sur 15 Oeste 0 923.2 -0.8 49
2019-08-19 15:00:00 19.7 5 Norte 15 Norte 0 923.4 -0.6 60
2019-08-19 14:00:00 18.7 6 Oeste 14 Este 0 923.9 0.4 61
2019-08-19 13:00:00 17 4 Nordeste 13 Nordeste 0 924 0.7 65
2019-08-19 12:00:00 14.2 6 Nordeste 17 Este 0 924 0.6 76
2019-08-19 11:00:00 13.3 7 Este 13 Este 0 923.5 0 83
2019-08-19 10:00:00 11.3 3 Noroeste 13 Noroeste 0 923.3 0.2 93
2019-08-19 09:00:00 10 5 Oeste 12 Oeste 0 923.4 0.7 95
2019-08-19 08:00:00 9.3 5 Oeste 14 Oeste 0 923.5 0.6 95
2019-08-19 07:00:00 8.7 5 Oeste 13 Oeste 0 923.1 -0.5 93
2019-08-19 06:00:00 9 5 Oeste 15 Oeste 0 922.7 -1 92
2019-08-19 05:00:00 9.9 8 Noroeste 21 Oeste 0 922.9 -0.7 91
2019-08-19 04:00:00 10.3 8 Noroeste 18 Oeste 0 923.6 -0.2 90
2019-08-19 03:00:00 10.9 6 Noroeste 25 Oeste 0 923.7 -0.1 90
2019-08-19 02:00:00 11.7 9 Oeste 24 Oeste 0 923.6 0.2 88
2019-08-19 01:00:00 12.9 10 Oeste 23 Sudoeste 0 923.8 1.3 87
2019-08-19 00:00:00 13.2 9 Oeste 27 Oeste 0 923.8 1.7 87
2019-08-18 23:00:00 13.7 10 Oeste 27 Oeste 0 923.4 1.4 87
2019-08-18 22:00:00 15.2 6 Oeste 17 Oeste 0 922.5 0.7 82
2019-08-18 21:00:00 16.4 4 Oeste 18 Oeste 0 922.1 0.3 82
2019-08-18 20:00:00 17.7 8 Oeste 21 Noroeste 0 922 0.3 76
2019-08-18 19:00:00 19.4 7 Oeste 26 Oeste 0 921.8 0.2 70
2019-08-18 18:00:00 18.5 12 Oeste 26 Oeste 0 921.8 0.6 79
2019-08-18 17:00:00 18.8 10 Oeste 24 Oeste 0 921.7 0.5 78
2019-08-18 16:00:00 19.2 10 Oeste 27 Oeste 0 921.6 0.4 78
2019-08-18 15:00:00 20.1 9 Noroeste 24 Oeste 0 921.2 0.6 79
2019-08-18 14:00:00 18.7 9 Oeste 22 Oeste 1.2 921.2 1.2 85
2019-08-18 13:00:00 16.6 10 Oeste 25 Oeste 4.4 921.2 1.7 91
2019-08-18 12:00:00 16.6 5 Noroeste 13 Oeste 3.8 920.6 1.5 92
2019-08-18 11:00:00 16.6 0 Calma 6 Oeste 0.4 920 1.1 87
2019-08-18 10:00:00 15.8 0 Calma 11 Noroeste 0 919.5 0.8 87
2019-08-18 09:00:00 15.9 6 Noroeste 13 Noroeste 0 919.1 -0.1 87
2019-08-18 08:00:00 15.6 6 Noroeste 9 Norte 0 918.9 -0.6 86
2019-08-18 07:00:00 15.1 0 Calma 6 Este 0 918.7 -1.1 86
2019-08-18 06:00:00 14.3 0 Calma 8 Oeste 0 919.2 -1.1 85
2019-08-18 05:00:00 14.7 4 Sudoeste 8 Sudoeste 0 919.5 -0.9 85
2019-08-18 04:00:00 14.8 2 Sudeste 10 Sudoeste 0 919.8 -0.7 85
2019-08-18 03:00:00 15.4 6 Oeste 12 Oeste 0 920.3 -0.1 86
2019-08-18 02:00:00 15.7 0 Calma 21 Oeste 0 920.4 -0.2 86
2019-08-18 01:00:00 15.9 9 Noroeste 17 Oeste 0 920.5 0.2 84
2019-08-18 00:00:00 17.1 10 Oeste 18 Oeste 0 920.4 0.3 84
2019-08-17 23:00:00 18.8 5 Oeste 17 Oeste 0 920.6 0.5 77
2019-08-17 22:00:00 20.4 9 Oeste 23 Oeste 0 920.3 0 71
2019-08-17 21:00:00 22.8 9 Oeste 29 Oeste 0 920.1 -0.3 54
2019-08-17 20:00:00 25 8 Oeste 29 Oeste 0 920.1 -0.6 43
2019-08-17 19:00:00 28.6 10 Oeste 32 Oeste 0 920.3 -0.9 35
2019-08-17 18:00:00 29 10 Noroeste 28 Oeste 0 920.4 -1.1 33
2019-08-17 17:00:00 29.1 13 Oeste 31 Oeste 0 920.7 -1.3 29
2019-08-17 16:00:00 29.2 15 Oeste 35 Sudoeste 0 921.2 -1.2 28
2019-08-17 15:00:00 29 11 Noroeste 25 Oeste 0 921.5 -1.3 30
2019-08-17 14:00:00 27.6 3 Sudeste 14 Sur 0 922 -1 39
2019-08-17 13:00:00 25.7 7 Sudeste 14 Sudeste 0 922.4 -0.7 41
2019-08-17 12:00:00 23.3 4 Nordeste 11 Este 0 922.8 -0.2 51
2019-08-17 11:00:00 21.1 4 Sudeste 9 Este 0 923 0 55
2019-08-17 10:00:00 18.6 3 Este 8 Nordeste 0 923.1 0.5 65
2019-08-17 09:00:00 15.5 3 Oeste 14 Oeste 0 923 0.2 73
2019-08-17 08:00:00 12.6 7 Noroeste 21 Oeste 0 923 0.1 79
2019-08-17 07:00:00 12.1 9 Noroeste 17 Noroeste 0 922.6 -0.7 77
2019-08-17 06:00:00 11.6 9 Noroeste 14 Noroeste 0 922.8 -1 78
2019-08-17 05:00:00 12.2 8 Noroeste 15 Noroeste 0 922.9 -1.2 75
2019-08-17 04:00:00 12.4 8 Noroeste 15 Noroeste 0 923.3 -1 81
2019-08-17 03:00:00 13.5 5 Oeste 14 Oeste 0 923.8 -0.3 81
2019-08-17 02:00:00 14.2 8 Noroeste 15 Noroeste 0 924.1 0 83
2019-08-17 01:00:00 15.8 6 Oeste 21 Oeste 0 924.3 0.7 78
2019-08-17 00:00:00 17 11 Oeste 22 Oeste 0 924.1 0.8 75
2019-08-16 23:00:00 18.5 9 Oeste 26 Oeste 0 924.1 1.1 69
2019-08-16 22:00:00 20.1 11 Oeste 22 Oeste 0 923.6 0.5 62
2019-08-16 21:00:00 22.8 7 Sudoeste 22 Noroeste 0 923.3 0 50
2019-08-16 20:00:00 25 9 Oeste 25 Noroeste 0 923 -0.5 43
2019-08-16 19:00:00 27.6 10 Noroeste 27 Oeste 0 923.1 -0.4 34
2019-08-16 18:00:00 28.6 11 Noroeste 29 Noroeste 0 923.3 -0.6 27
2019-08-16 17:00:00 28.7 10 Oeste 28 Oeste 0 923.5 -0.6 23
2019-08-16 16:00:00 28.9 10 Oeste 27 Oeste 0 923.5 -0.8 29
2019-08-16 15:00:00 28.1 11 Noroeste 26 Noroeste 0 923.9 -0.6 31
2019-08-16 14:00:00 27.6 10 Noroeste 23 Oeste 0 924.1 -0.5 30
2019-08-16 13:00:00 25.8 5 Sudeste 12 Este 0 924.3 -0.6 39
2019-08-16 12:00:00 23.4 5 Sudeste 11 Este 0 924.5 -0.3 50
2019-08-16 11:00:00 20.5 5 Este 10 Sudeste 0 924.6 0 61
2019-08-16 10:00:00 17.8 2 Este 10 Noroeste 0 924.9 0.3 68
2019-08-16 09:00:00 14 6 Noroeste 10 Noroeste 0 924.8 0.2 78
2019-08-16 08:00:00 11.5 6 Noroeste 13 Oeste 0 924.6 -0.4 86
2019-08-16 07:00:00 11.3 7 Noroeste 13 Noroeste 0 924.6 -0.6 87
2019-08-16 06:00:00 12 7 Noroeste 11 Noroeste 0 924.6 -0.8 87
2019-08-16 05:00:00 12.7 6 Oeste 12 Noroeste 0 925 -0.4 85
2019-08-16 04:00:00 13.2 6 Noroeste 18 Oeste 0 925.2 -0.5 85
2019-08-16 03:00:00 14 8 Noroeste 20 Oeste 0 925.4 -0.4 85
2019-08-16 02:00:00 15.1 14 Oeste 27 Noroeste 0 925.4 -0.6 82
2019-08-16 01:00:00 15 7 Noroeste 19 Oeste 0 925.7 -0.1 81
2019-08-16 00:00:00 16.8 7 Oeste 22 Oeste 0 925.8 0.4 72
2019-08-15 23:00:00 18.3 7 Oeste 17 Sudoeste 0 926 0.8 67
2019-08-15 22:00:00 19.6 8 Oeste 18 Sudoeste 0 925.8 0.4 61
2019-08-15 21:00:00 21.9 7 Oeste 20 Noroeste 0 925.4 0 54
2019-08-15 20:00:00 23.6 8 Noroeste 21 Norte 0 925.2 -0.4 50
2019-08-15 19:00:00 27 6 Noroeste 28 Oeste 0 925.4 -0.6 40
2019-08-15 18:00:00 26.5 10 Noroeste 29 Noroeste 0 925.4 -0.7 41
2019-08-15 17:00:00 27.1 10 Noroeste 30 Oeste 0 925.6 -0.8 42
2019-08-15 16:00:00 27 11 Noroeste 26 Noroeste 0 926 -0.7 39
2019-08-15 15:00:00 27 10 Oeste 25 Oeste 0 926.1 -0.6 43
2019-08-15 14:00:00 26.3 8 Noroeste 25 Oeste 0 926.4 -0.5 42
2019-08-15 13:00:00 25.5 5 Norte 15 Sudeste 0 926.7 -0.2 42
2019-08-15 12:00:00 23.3 4 Este 11 Este 0 926.7 -0.3 45
2019-08-15 11:00:00 20.4 3 Sudeste 9 Sudeste 0 926.9 0.1 54
2019-08-15 10:00:00 17.4 4 Este 8 Sudeste 0 926.9 0.3 64
2019-08-15 09:00:00 13.7 4 Oeste 16 Noroeste 0 927 0.4 58
2019-08-15 08:00:00 10.4 9 Noroeste 15 Noroeste 0 926.8 -0.1 80
2019-08-15 07:00:00 11.1 8 Noroeste 13 Noroeste 0 926.6 -0.5 84
2019-08-15 06:00:00 11.9 6 Noroeste 13 Oeste 0 926.6 -0.7 89
2019-08-15 05:00:00 13 6 Noroeste 16 Oeste 0 926.9 -0.2 90
2019-08-15 04:00:00 13.8 7 Noroeste 20 Oeste 0 927.1 0.1 90
2019-08-15 03:00:00 14.4 9 Oeste 20 Oeste 0 927.3 0 92
2019-08-15 02:00:00 14.8 7 Oeste 18 Oeste 0 927.1 -0.4 91
2019-08-15 01:00:00 15.6 5 Oeste 13 Noroeste 0 927 0.3 90
2019-08-15 00:00:00 16.9 5 Oeste 19 Oeste 0 927.3 0.9 85
2019-08-14 23:00:00 18 7 Oeste 22 Oeste 0 927.5 1.3 82
2019-08-14 22:00:00 18.8 6 Oeste 20 Noroeste 0 926.7 0.4 79
2019-08-14 21:00:00 20.4 9 Noroeste 25 Oeste 0 926.4 0 74
2019-08-14 20:00:00 22.3 9 Oeste 21 Oeste 0 926.2 -0.3 63
2019-08-14 19:00:00 24.6 9 Noroeste 30 Oeste 0 926.3 0 56
2019-08-14 18:00:00 23.4 11 Noroeste 31 Noroeste 0 926.4 -0.1 61
2019-08-14 17:00:00 25.2 9 Oeste 26 Oeste 0 926.5 -0.4 52
2019-08-14 16:00:00 26.6 9 Oeste 31 Oeste 0 926.3 -0.7 46
2019-08-14 15:00:00 25.4 11 Oeste 26 Sudoeste 0 926.5 -0.3 47
2019-08-14 14:00:00 24.9 10 Noroeste 25 Oeste 0 926.9 0.5 49
2019-08-14 13:00:00 24.4 9 Oeste 23 Oeste 0 927 0.6 47
2019-08-14 12:00:00 22.8 6 Noroeste 17 Norte 0 926.8 0.4 46
2019-08-14 11:00:00 19.7 5 Sudeste 11 Este 0 926.4 0.3 57
2019-08-14 10:00:00 17.5 5 Sudeste 12 Noroeste 0 926.4 0.3 65
2019-08-14 09:00:00 13.9 5 Oeste 18 Noroeste 0 926.4 0.7 73
2019-08-14 08:00:00 10.5 8 Noroeste 14 Oeste 0 926.1 -0.1 85
2019-08-14 07:00:00 11.1 5 Oeste 14 Oeste 0 926.1 0.1 81
2019-08-14 06:00:00 11.3 7 Oeste 16 Oeste 0 925.7 -0.4 83
2019-08-14 05:00:00 11.6 7 Noroeste 17 Noroeste 0 926.2 0 84
2019-08-14 04:00:00 11.9 5 Noroeste 17 Oeste 0 926 -0.4 83
2019-08-14 03:00:00 12.6 6 Noroeste 19 Oeste 0 926.1 -0.4 81
2019-08-14 02:00:00 12.8 9 Noroeste 17 Oeste 0 926.2 -0.3 81
2019-08-14 01:00:00 14.7 9 Oeste 18 Oeste 0 926.4 0.6 79
2019-08-14 00:00:00 15.8 8 Oeste 17 Oeste 0 926.5 0.9 76
2019-08-13 23:00:00 15.9 7 Sudoeste 15 Oeste 0 926.5 1.2 64
2019-08-13 22:00:00 16.6 6 Oeste 14 Noroeste 0 925.8 0.5 49
2019-08-13 21:00:00 19.5 5 Oeste 19 Oeste 0 925.6 0.4 33
2019-08-13 20:00:00 21.6 10 Oeste 23 Oeste 0 925.3 -0.2 26
2019-08-13 19:00:00 24.4 9 Noroeste 25 Noroeste 0 925.3 -0.6 25
2019-08-13 18:00:00 24.8 9 Oeste 28 Noroeste 0 925.2 -0.8 30
2019-08-13 17:00:00 24.1 8 Noroeste 23 Oeste 0 925.5 -0.8 36
2019-08-13 16:00:00 23.8 11 Oeste 24 Oeste 0 925.9 -0.8 37
2019-08-13 15:00:00 23.4 6 Norte 15 Noroeste 0 926 -0.8 41
2019-08-13 14:00:00 22 4 Nordeste 12 Sudeste 0 926.3 -0.5 45
2019-08-13 13:00:00 20.1 4 Nordeste 15 Nordeste 0 926.7 -0.2 51
2019-08-13 12:00:00 17.7 8 Este 15 Este 0 926.8 0 54
2019-08-13 11:00:00 15.1 8 Este 13 Este 0 926.8 0.1 64
2019-08-13 10:00:00 12.9 5 Este 9 Este 0 926.9 0.6 74
2019-08-13 09:00:00 9.3 5 Noroeste 14 Noroeste 0 926.8 0.9 89
2019-08-13 08:00:00 6.6 7 Noroeste 12 Noroeste 0 926.7 0.6 92
2019-08-13 07:00:00 6.3 7 Noroeste 14 Noroeste 0 926.3 0 92
2019-08-13 06:00:00 6.6 7 Noroeste 11 Noroeste 0 925.9 -0.9 92
2019-08-13 05:00:00 7 7 Noroeste 13 Noroeste 0 926.1 -1 92
2019-08-13 04:00:00 8.1 7 Noroeste 16 Noroeste 0 926.3 -1 88
2019-08-13 03:00:00 9.1 6 Noroeste 20 Oeste 0 926.8 -0.7 86
2019-08-13 02:00:00 9.5 7 Noroeste 18 Oeste 0 927.1 -0.4 85
2019-08-13 01:00:00 10.8 9 Oeste 21 Oeste 0 927.3 0.2 81
2019-08-13 00:00:00 11.9 10 Oeste 22 Oeste 0 927.5 0.9 77
2019-08-12 23:00:00 13.3 10 Oeste 28 Oeste 0 927.5 1.2 72
2019-08-12 22:00:00 14.5 5 Sudoeste 21 Oeste 0 927.1 1.1 65
2019-08-12 21:00:00 16.1 6 Oeste 19 Noroeste 0 926.6 0.2 56
2019-08-12 20:00:00 17.3 10 Oeste 21 Oeste 0 926.3 -0.5 50
2019-08-12 19:00:00 19.2 6 Noroeste 18 Noroeste 0 926 -1.2 44
2019-08-12 18:00:00 17.3 7 Noroeste 22 Norte 0 926.4 -0.9 50
2019-08-12 17:00:00 19.2 10 Noroeste 24 Noroeste 0 926.8 -1 44
2019-08-12 16:00:00 19.4 9 Noroeste 27 Norte 0 927.2 -1.1 45
2019-08-12 15:00:00 19.3 8 Norte 22 Norte 0 927.3 -1 44
2019-08-12 14:00:00 18.5 6 Norte 24 Oeste 0 927.8 -0.2 47
2019-08-12 13:00:00 17.6 10 Nordeste 24 Este 0 928.3 0.6 47
2019-08-12 12:00:00 15.8 6 Norte 23 Este 0 928.3 1 53
2019-08-12 11:00:00 15.6 8 Este 15 Este 0 928 1.2 54
2019-08-12 10:00:00 14 6 Nordeste 14 Nordeste 0 927.7 1.1 68
2019-08-12 09:00:00 11.4 5 Oeste 13 Oeste 0 927.3 1 81
2019-08-12 08:00:00 9.4 5 Oeste 8 Oeste 0 926.8 0.6 89
2019-08-12 07:00:00 10.3 3 Norte 5 Este 0 926.6 0.1 91
2019-08-12 06:00:00 10.4 3 Sudoeste 6 Oeste 0 926.3 -0.3 90
2019-08-12 05:00:00 10.4 2 Oeste 7 Noroeste 0 926.2 -0.9 91
2019-08-12 04:00:00 9.3 0 Calma 10 Oeste 0 926.5 -0.6 92
2019-08-12 03:00:00 9.3 4 Oeste 9 Noroeste 0 926.6 -0.5 89
2019-08-12 02:00:00 10.1 2 Oeste 9 Oeste 0 927.1 0.2 89
2019-08-12 01:00:00 10.2 5 Noroeste 11 Oeste 0 927.1 1 89
2019-08-12 00:00:00 10.7 3 Oeste 13 Noroeste 0 927.1 1.5 86
2019-08-11 23:00:00 10.9 3 Oeste 12 Oeste 0 926.9 1.5 83
2019-08-11 22:00:00 12.2 4 Oeste 11 Oeste 0 926.1 0.8 79
2019-08-11 21:00:00 13.4 5 Oeste 12 Oeste 0 925.6 0.6 76
2019-08-11 20:00:00 14.5 4 Oeste 21 Noroeste 0 925.4 0.9 73
2019-08-11 19:00:00 15.3 5 Norte 29 Noroeste 0 925.3 0.7 66
2019-08-11 18:00:00 15.2 9 Noroeste 37 Norte 0 925 0.6 67
2019-08-11 17:00:00 19.5 13 Oeste 33 Oeste 0 924.5 -0.2 49
2019-08-11 16:00:00 19 13 Noroeste 30 Oeste 0 924.6 -0.5 48
2019-08-11 15:00:00 19.8 13 Oeste 31 Oeste 0 924.4 -0.5 42
2019-08-11 14:00:00 19.1 10 Oeste 28 Sudoeste 0 924.7 0.3 46
2019-08-11 13:00:00 18.4 9 Oeste 21 Oeste 0 925.1 0.8 46
2019-08-11 12:00:00 17.7 8 Noroeste 24 Oeste 0 924.9 0.9 50
2019-08-11 11:00:00 16.2 8 Oeste 23 Oeste 0 924.4 0.8 59
2019-08-11 10:00:00 14.5 10 Oeste 23 Sudoeste 0 924.3 1 67
2019-08-11 09:00:00 12 5 Oeste 21 Oeste 0 924 0.8 84
2019-08-11 08:00:00 11.5 8 Oeste 19 Sudoeste 0 923.6 0.2 86
2019-08-11 07:00:00 11.5 8 Oeste 19 Sudoeste 0 923.3 -0.2 84
2019-08-11 06:00:00 11.7 8 Oeste 17 Oeste 0 923.2 -0.8 83
2019-08-11 05:00:00 11.4 6 Oeste 23 Oeste 0 923.4 -1.3 83
2019-08-11 04:00:00 12.3 8 Oeste 23 Sudoeste 0 923.5 -1.3 82
2019-08-11 03:00:00 12.6 9 Oeste 17 Oeste 0 924 -0.8 83
2019-08-11 02:00:00 13.1 8 Oeste 19 Noroeste 0 924.7 -0.2 82
2019-08-11 01:00:00 14.1 7 Oeste 19 Oeste 0 924.8 0.2 79
2019-08-11 00:00:00 14.4 4 Oeste 14 Oeste 0 924.8 0.3 72
2019-08-10 23:00:00 15 6 Sudoeste 27 Oeste 0 924.9 0.6 68
2019-08-10 22:00:00 16 10 Oeste 28 Oeste 0 924.6 0.1 65
2019-08-10 21:00:00 17.6 6 Oeste 21 Oeste 0 924.5 0 59
2019-08-10 20:00:00 19 9 Oeste 26 Oeste 0 924.3 -0.2 51
2019-08-10 19:00:00 20 11 Oeste 27 Oeste 0 924.5 -0.4 44
2019-08-10 18:00:00 21.2 8 Oeste 21 Oeste 0 924.5 -0.6 41
2019-08-10 17:00:00 21.3 8 Oeste 24 Oeste 0 924.5 -1 42
2019-08-10 16:00:00 22.2 9 Noroeste 23 Oeste 0 924.9 -0.8 41
2019-08-10 15:00:00 21.7 9 Norte 25 Oeste 0 925.1 -0.9 46
2019-08-10 14:00:00 21.5 9 Noroeste 21 Noroeste 0 925.5 -0.5 42
2019-08-10 13:00:00 20.9 5 Oeste 19 Oeste 0 925.7 -0.1 45
2019-08-10 12:00:00 20.1 7 Noroeste 17 Oeste 0 926 0.5 48
2019-08-10 11:00:00 17.6 5 Noroeste 15 Noroeste 0 926 0.7 63
2019-08-10 10:00:00 15.5 6 Sudeste 12 Sudeste 0 925.8 1.1 70
2019-08-10 09:00:00 12.5 3 Sudoeste 15 Oeste 0 925.5 0.9 81
2019-08-10 08:00:00 9.6 6 Noroeste 16 Oeste 0 925.3 0.9 89
2019-08-10 07:00:00 10.1 6 Oeste 16 Oeste 0 924.7 0.3 87
2019-08-10 06:00:00 10.5 8 Oeste 12 Oeste 0 924.6 0.4 90
2019-08-10 05:00:00 11.5 3 Noroeste 9 Noroeste 0 924.4 0.1 86
2019-08-10 04:00:00 12.1 3 Oeste 10 Oeste 0 924.4 -0.1 82
2019-08-10 03:00:00 12.3 4 Sudoeste 9 Oeste 0 924.2 0 83
2019-08-10 02:00:00 13.1 3 Oeste 10 Oeste 0 924.3 0.5 85
2019-08-10 01:00:00 13.8 5 Sudoeste 16 Oeste 0 924.5 1.2 83
2019-08-10 00:00:00 14.2 4 Noroeste 19 Oeste 0 924.2 1.4 84
2019-08-09 23:00:00 14.9 5 Noroeste 17 Oeste 0 923.8 1.5 82
2019-08-09 22:00:00 15.4 7 Oeste 22 Oeste 0 923.3 1.1 75
2019-08-09 21:00:00 16.2 8 Oeste 31 Noroeste 0 922.8 1.3 67
2019-08-09 20:00:00 17 12 Oeste 31 Oeste 0 922.3 1 62
2019-08-09 19:00:00 17.4 9 Oeste 27 Sudoeste 0 922.2 1.1 59
2019-08-09 18:00:00 17.8 13 Oeste 41 Oeste 0 921.5 0.7 56
2019-08-09 17:00:00 19.3 18 Oeste 50 Sudoeste 0 921.3 0.6 55
2019-08-09 16:00:00 21.1 16 Oeste 40 Oeste 0 921.1 0.9 52
2019-08-09 15:00:00 21.5 17 Sudoeste 38 Sudoeste 0 920.8 0.9 50
2019-08-09 14:00:00 19.6 11 Sudoeste 34 Oeste 0 920.7 1.4 57
2019-08-09 13:00:00 18.5 14 Sudoeste 36 Oeste 0 920.2 1.2 60
2019-08-09 12:00:00 17.9 8 Sudoeste 39 Sudoeste 0 919.9 1.4 64
2019-08-09 11:00:00 16.6 8 Sudoeste 26 Sudoeste 0 919.3 1.2 69
2019-08-09 10:00:00 16 6 Sur 24 Oeste 0.2 919 1.5 72
2019-08-09 09:00:00 14.7 3 Sur 10 Norte 0 918.5 1.2 84
2019-08-09 08:00:00 13.3 4 Noroeste 27 Oeste 0 918.1 1.3 85
2019-08-09 07:00:00 14.1 13 Oeste 33 Oeste 0 917.5 1 81
2019-08-09 06:00:00 14.4 14 Oeste 27 Oeste 0 917.3 1.2 87
2019-08-09 05:00:00 16 14 Oeste 36 Oeste 0 916.8 0.5 88
2019-08-09 04:00:00 18.2 14 Oeste 35 Sudoeste 0.8 916.5 -0.3 90
2019-08-09 03:00:00 18.7 6 Noroeste 15 Noroeste 0.2 916.1 -1.2 91
2019-08-09 02:00:00 19.4 6 Este 19 Sudoeste 0 916.3 -1 84
2019-08-09 01:00:00 20.2 6 Sudoeste 23 Oeste 0 916.8 0.2 77
2019-08-09 00:00:00 20.4 5 Oeste 35 Sudoeste 0 917.3 0.6 75
2019-08-08 23:00:00 20.8 11 Sudoeste 37 Sudoeste 0 917.3 0.3 71
2019-08-08 22:00:00 21.1 14 Sudoeste 39 Sur 0 916.6 -0.4 70
2019-08-08 21:00:00 21.8 10 Sudoeste 38 Sudoeste 0 916.7 0 64
2019-08-08 20:00:00 22.5 11 Sudoeste 45 Oeste 0 917 0.2 60
2019-08-08 19:00:00 24.1 14 Sudoeste 54 Sudoeste 0 917 0.1 55
2019-08-08 18:00:00 25.9 19 Sudoeste 39 Oeste 0 916.7 -0.5 54
2019-08-08 17:00:00 26.4 13 Sudoeste 33 Sudoeste 0 916.8 -0.9 58
2019-08-08 16:00:00 26.5 14 Sudoeste 39 Oeste 0 916.9 -1.1 59
2019-08-08 15:00:00 25.2 13 Sur 30 Sur 0 917.2 -0.8 61
2019-08-08 14:00:00 22 6 Norte 16 Este 0.2 917.7 -0.3 84
2019-08-08 13:00:00 21.7 12 Este 23 Este 0 918 -0.3 81
2019-08-08 12:00:00 21.5 10 Este 22 Este 0 918 0 79
2019-08-08 11:00:00 22.5 10 Este 19 Nordeste 0 918 0.2 75
2019-08-08 10:00:00 18.6 3 Este 9 Este 0 918.3 0.7 90
2019-08-08 09:00:00 17.7 3 Noroeste 8 Norte 0 918 0.5 92
2019-08-08 08:00:00 16.6 5 Este 16 Oeste 0 917.8 -0.2 94
2019-08-08 07:00:00 16.3 8 Oeste 22 Nordeste 0 917.6 -0.5 94
2019-08-08 06:00:00 16.7 11 Este 20 Nordeste 0 917.5 -0.8 93
2019-08-08 05:00:00 16.3 5 Nordeste 16 Sudeste 0 918 -0.8 94
2019-08-08 04:00:00 16.2 5 Este 22 Nordeste 0 918.1 -0.9 94
2019-08-08 03:00:00 16.4 8 Nordeste 19 Este 0 918.3 -0.8 94
2019-08-08 02:00:00 16.6 6 Nordeste 16 Nordeste 0 918.8 0 93
2019-08-08 01:00:00 16.6 5 Sudeste 12 Nordeste 0 919 0.3 93
2019-08-08 00:00:00 16.5 5 Norte 16 Nordeste 0.2 919.1 0.6 94
2019-08-07 23:00:00 16.6 6 Este 14 Norte 2 918.8 0 93
2019-08-07 22:00:00 16.9 4 Nordeste 14 Nordeste 0 918.7 -0.2 89
2019-08-07 21:00:00 17.1 8 Nordeste 17 Nordeste 0 918.5 -0.6 89
2019-08-07 20:00:00 17.9 8 Nordeste 16 Nordeste 0 918.8 -0.2 90
2019-08-07 19:00:00 18 7 Nordeste 18 Este 0 918.9 -0.4 91
2019-08-07 18:00:00 18 4 Este 12 Nordeste 0.4 919.1 -0.3 92
2019-08-07 17:00:00 17.5 7 Este 13 Nordeste 3 919 -0.3 90
2019-08-07 16:00:00 18.5 5 Nordeste 13 Nordeste 1.2 919.3 0 85
2019-08-07 15:00:00 19.5 7 Nordeste 14 Este 0 919.4 0 74
2019-08-07 14:00:00 21 5 Noroeste 16 Noroeste 0 919.3 0 70
2019-08-07 13:00:00 20.7 6 Nordeste 15 Este 0 919.3 0.3 64
2019-08-07 12:00:00 19.1 8 Este 14 Sudeste 0 919.4 0.7 71
2019-08-07 11:00:00 17.7 4 Este 9 Norte 0 919.3 0.9 75
2019-08-07 10:00:00 16.6 3 Nordeste 9 Oeste 0 919 0.7 80
2019-08-07 09:00:00 14.6 6 Noroeste 12 Noroeste 0 918.7 0.3 83
2019-08-07 08:00:00 12.4 6 Noroeste 12 Noroeste 0 918.4 -0.1 89
2019-08-07 07:00:00 12.6 6 Noroeste 11 Oeste 0 918.3 -0.3 89
2019-08-07 06:00:00 13.5 5 Noroeste 11 Oeste 0 918.4 -0.7 88
2019-08-07 05:00:00 14.2 4 Noroeste 12 Oeste 0 918.5 -0.9 88
2019-08-07 04:00:00 14.2 6 Noroeste 15 Oeste 0 918.6 -0.9 89
2019-08-07 03:00:00 14.7 5 Noroeste 15 Noroeste 0 919.1 -0.3 89
2019-08-07 02:00:00 15.3 7 Noroeste 22 Sudoeste 0 919.4 0 86
2019-08-07 01:00:00 16.4 9 Oeste 23 Oeste 0 919.5 0.2 83
2019-08-07 00:00:00 16.7 6 Noroeste 12 Oeste 0 919.4 -0.1 83
2019-08-06 23:00:00 17.5 2 Oeste 8 Noroeste 0 919.4 -0.3 78
2019-08-06 22:00:00 18 3 Noroeste 10 Oeste 0 919.3 -1 82
2019-08-06 21:00:00 18.4 3 Noroeste 9 Oeste 0 919.5 -1 83
2019-08-06 20:00:00 18.8 4 Oeste 22 Oeste 0 919.7 -0.4 80
2019-08-06 19:00:00 19.9 12 Oeste 24 Oeste 0 920.3 0.1 74
2019-08-06 18:00:00 20.9 10 Oeste 36 Noroeste 0 920.5 0.2 68
2019-08-06 17:00:00 21.2 15 Oeste 34 Oeste 0 920.1 -0.3 65
2019-08-06 16:00:00 22.8 11 Noroeste 26 Oeste 0 920.2 -0.5 60
2019-08-06 15:00:00 23.2 10 Noroeste 24 Oeste 0 920.3 -0.5 63
2019-08-06 14:00:00 22.5 7 Noroeste 15 Noroeste 0 920.4 -0.4 64
2019-08-06 13:00:00 21.2 4 Noroeste 16 Noroeste 0 920.7 -0.1 71
2019-08-06 12:00:00 20.7 6 Noroeste 16 Noroeste 0 920.8 0.3 69
2019-08-06 11:00:00 20.5 4 Nordeste 15 Norte 0 920.8 0.8 70
2019-08-06 10:00:00 17.6 4 Oeste 10 Noroeste 0 920.8 0.8 78
2019-08-06 09:00:00 15.3 4 Noroeste 13 Noroeste 0 920.5 0.3 86
2019-08-06 08:00:00 14 7 Noroeste 14 Oeste 0 920 -0.4 90
2019-08-06 07:00:00 13.4 5 Noroeste 12 Noroeste 0 920 -1.1 91
2019-08-06 06:00:00 13.7 6 Noroeste 12 Noroeste 0 920.2 -0.9 90
2019-08-06 05:00:00 14.9 4 Oeste 15 Oeste 0 920.4 -1.1 89
2019-08-06 04:00:00 15.7 8 Oeste 17 Oeste 0 921.1 -0.7 88
2019-08-06 03:00:00 16.8 5 Oeste 12 Oeste 0 921.1 -0.6 85
2019-08-06 02:00:00 17.1 6 Oeste 13 Oeste 0 921.5 -0.1 85
2019-08-06 01:00:00 17.3 5 Oeste 14 Noroeste 0 921.8 0.8 83
2019-08-06 00:00:00 18.3 5 Oeste 14 Sudoeste 0 921.7 1.3 78
2019-08-05 23:00:00 19.5 7 Oeste 17 Oeste 0 921.6 1.2 73
2019-08-05 22:00:00 21.1 6 Sudoeste 23 Oeste 0 921 0.5 66
2019-08-05 21:00:00 23.4 13 Oeste 33 Oeste 0 920.4 -0.2 54
2019-08-05 20:00:00 25.1 13 Oeste 30 Oeste 0 920.4 -0.5 45
2019-08-05 19:00:00 27.6 11 Noroeste 26 Oeste 0 920.5 -0.6 38
2019-08-05 18:00:00 27.9 11 Oeste 27 Oeste 0 920.6 -0.9 37
2019-08-05 17:00:00 27.6 10 Noroeste 26 Noroeste 0 920.9 -0.9 39
2019-08-05 16:00:00 27.1 10 Noroeste 27 Oeste 0 921.1 -1 38
2019-08-05 15:00:00 26.6 10 Oeste 24 Oeste 0 921.5 -0.9 37
2019-08-05 14:00:00 26.1 7 Noroeste 18 Oeste 0 921.8 -0.8 42
2019-08-05 13:00:00 23.8 5 Oeste 14 Este 0 922.1 -0.5 54
2019-08-05 12:00:00 21.2 5 Este 10 Este 0 922.4 -0.3 67
2019-08-05 11:00:00 17.2 3 Sudeste 8 Nordeste 0 922.6 -0.1 82
2019-08-05 10:00:00 15.4 4 Noroeste 8 Noroeste 0 922.6 0.3 87
2019-08-05 09:00:00 13.7 6 Noroeste 10 Noroeste 0 922.7 0.4 91
2019-08-05 08:00:00 12.6 4 Noroeste 11 Noroeste 0 922.7 0 92
2019-08-05 07:00:00 12.4 4 Oeste 10 Noroeste 0 922.3 -0.4 90
2019-08-05 06:00:00 13.3 4 Noroeste 9 Oeste 0 922.3 -0.4 89
2019-08-05 05:00:00 14.4 2 Oeste 13 Noroeste 0 922.7 -0.2 89
2019-08-05 04:00:00 14.9 7 Oeste 14 Oeste 0 922.7 -0.3 91
2019-08-05 03:00:00 15.7 5 Oeste 18 Noroeste 0 922.7 -0.2 88
2019-08-05 02:00:00 16.4 7 Oeste 15 Oeste 0 922.9 0 89
2019-08-05 01:00:00 16.7 5 Oeste 17 Oeste 0 923 0.7 84
2019-08-05 00:00:00 17.7 9 Oeste 24 Oeste 0 922.9 1 79
2019-08-04 23:00:00 18.6 9 Oeste 17 Oeste 0 922.9 1.5 73
2019-08-04 22:00:00 20.1 9 Sudoeste 22 Oeste 0 922.3 1 62
2019-08-04 21:00:00 22.4 11 Oeste 26 Oeste 0 921.9 0.7 52
2019-08-04 20:00:00 24.4 11 Oeste 28 Oeste 0 921.4 0.2 39
2019-08-04 19:00:00 26.7 12 Oeste 26 Oeste 0 921.3 -0.2 35
2019-08-04 18:00:00 26.8 12 Oeste 27 Noroeste 0 921.2 -0.7 38
2019-08-04 17:00:00 26.4 10 Noroeste 24 Noroeste 0 921.2 -0.9 42
2019-08-04 16:00:00 25.4 10 Noroeste 33 Noroeste 0 921.5 -0.8 48
2019-08-04 15:00:00 24.4 12 Noroeste 26 Noroeste 0 921.9 -0.2 52
2019-08-04 14:00:00 23.2 12 Noroeste 26 Oeste 0 922.1 0.2 59
2019-08-04 13:00:00 22 10 Oeste 23 Oeste 0 922.3 0.2 65
2019-08-04 12:00:00 20 5 Oeste 12 Oeste 0 922.1 0.2 70
2019-08-04 11:00:00 18.6 4 Sur 11 Norte 0 921.9 0.4 78
2019-08-04 10:00:00 17.3 4 Noroeste 9 Nordeste 0 922.1 0.6 85
2019-08-04 09:00:00 16.5 3 Sur 5 Sudoeste 0 921.9 0.5 89
2019-08-04 08:00:00 15.5 4 Oeste 19 Noroeste 0 921.5 0 92
2019-08-04 07:00:00 15.4 7 Noroeste 15 Noroeste 0 921.5 -0.1 93
2019-08-04 06:00:00 16.5 5 Oeste 16 Oeste 0 921.4 -0.1 91
2019-08-04 05:00:00 15.8 8 Oeste 18 Oeste 0 921.5 -0.2 93
2019-08-04 04:00:00 16 11 Oeste 20 Oeste 0 921.6 -0.4 92
2019-08-04 03:00:00 16.3 8 Oeste 18 Oeste 0 921.5 -0.3 90
2019-08-04 02:00:00 16.9 8 Oeste 17 Oeste 0 921.7 -0.2 87
2019-08-04 01:00:00 17.8 7 Oeste 26 Oeste 0 922 0.9 81
2019-08-04 00:00:00 18.7 12 Oeste 23 Oeste 0 921.8 1.2 79
2019-08-03 23:00:00 20.3 9 Oeste 24 Oeste 0 921.9 1.5 71
2019-08-03 22:00:00 21.8 9 Oeste 20 Oeste 0 921.1 0.6 60
2019-08-03 21:00:00 23.9 10 Oeste 25 Oeste 0 920.6 0 49
2019-08-03 20:00:00 26.2 12 Oeste 28 Oeste 0 920.4 -0.5 41
2019-08-03 19:00:00 28.9 10 Oeste 28 Oeste 0 920.5 -0.6 32
2019-08-03 18:00:00 28.9 12 Oeste 30 Oeste 0 920.6 -0.8 31
2019-08-03 17:00:00 28.4 12 Oeste 30 Oeste 0 920.9 -0.6 29
2019-08-03 16:00:00 28 13 Oeste 32 Oeste 0 921.1 -0.5 31
2019-08-03 15:00:00 27.8 12 Noroeste 25 Oeste 0 921.4 -0.4 34
2019-08-03 14:00:00 27.6 9 Oeste 22 Oeste 0 921.5 -0.1 45
2019-08-03 13:00:00 26.8 7 Oeste 17 Noroeste 0 921.6 -0.1 44
2019-08-03 12:00:00 25 5 Noroeste 13 Sudeste 0 921.8 0.2 55
2019-08-03 11:00:00 22.9 5 Este 10 Este 0 921.6 0.2 61
2019-08-03 10:00:00 20.4 3 Noroeste 9 Noroeste 0 921.7 0.3 65
2019-08-03 09:00:00 16.4 5 Noroeste 16 Oeste 0 921.6 0.3 76
2019-08-03 08:00:00 13.3 8 Noroeste 13 Noroeste 0 921.4 -0.1 85
2019-08-03 07:00:00 13.1 8 Noroeste 13 Oeste 0 921.4 -0.1 87
2019-08-03 06:00:00 13.6 7 Noroeste 13 Noroeste 0 921.3 -0.6 86
2019-08-03 05:00:00 14.1 8 Noroeste 12 Noroeste 0 921.5 -0.6 85
2019-08-03 04:00:00 15.4 6 Oeste 25 Oeste 0 921.5 -1 83
2019-08-03 03:00:00 15.7 4 Noroeste 21 Oeste 0 921.9 -0.8 81
2019-08-03 02:00:00 17 12 Oeste 21 Oeste 0 922.1 -0.6 79
2019-08-03 01:00:00 18.7 9 Oeste 23 Oeste 0 922.5 0.4 78
2019-08-03 00:00:00 19 8 Oeste 20 Oeste 0 922.7 0.9 69
2019-08-02 23:00:00 19.8 9 Oeste 19 Sudoeste 0 922.7 1.2 59
2019-08-02 22:00:00 21.4 8 Sudoeste 18 Oeste 0 922.1 0.4 52
2019-08-02 21:00:00 23.9 7 Oeste 22 Noroeste 0 921.8 -0.1 43
2019-08-02 20:00:00 26.2 6 Noroeste 23 Oeste 0 921.5 -0.6 36
2019-08-02 19:00:00 28.6 11 Oeste 29 Oeste 0 921.7 -0.8 31
2019-08-02 18:00:00 28.6 10 Oeste 27 Noroeste 0 921.9 -0.8 31
2019-08-02 17:00:00 28.5 10 Oeste 25 Noroeste 0 922.1 -0.7 38
2019-08-02 16:00:00 28.2 8 Oeste 28 Oeste 0 922.5 -0.5 41
2019-08-02 15:00:00 27.5 10 Oeste 24 Noroeste 0 922.7 -0.5 44
2019-08-02 14:00:00 26.9 5 Noroeste 17 Noroeste 0 922.8 -0.3 46
2019-08-02 13:00:00 24.7 4 Este 12 Sudeste 0 923 -0.1 52
2019-08-02 12:00:00 22.5 6 Este 13 Este 0 923.2 0.5 58
2019-08-02 11:00:00 19.8 5 Este 10 Nordeste 0 923.1 0.7 70
2019-08-02 10:00:00 16.5 2 Sudeste 7 Este 0 923.1 0.9 81
2019-08-02 09:00:00 13.8 2 Sur 5 Sudeste 0 922.7 0.6 92
2019-08-02 08:00:00 12.1 3 Oeste 7 Noroeste 0 922.4 0.3 95
2019-08-02 07:00:00 12.6 4 Sudoeste 6 Oeste 0 922.2 -0.2 95
2019-08-02 06:00:00 11.9 3 Oeste 6 Oeste 0 922.1 -0.2 94
2019-08-02 05:00:00 13.7 3 Oeste 7 Sudoeste 0 922.1 -0.2 93
2019-08-02 04:00:00 14 4 Sur 10 Oeste 0 922.4 0 93
2019-08-02 03:00:00 13.6 8 Oeste 14 Oeste 0 922.3 -0.1 89
2019-08-02 02:00:00 14.1 6 Oeste 18 Noroeste 0 922.3 0.2 90
2019-08-02 01:00:00 14.7 8 Noroeste 18 Noroeste 0 922.4 1 88
2019-08-02 00:00:00 16.1 9 Oeste 25 Oeste 0 922.4 1.5 85
2019-08-01 23:00:00 17.7 9 Oeste 32 Oeste 0 922.1 1.8 78
2019-08-01 22:00:00 19.2 10 Oeste 22 Sudoeste 0 921.4 1.3 71
2019-08-01 21:00:00 21.5 7 Noroeste 23 Noroeste 0 920.9 0.9 60
2019-08-01 20:00:00 24.1 8 Noroeste 23 Sudoeste 0 920.3 0.1 40
2019-08-01 19:00:00 26.8 10 Oeste 28 Oeste 0 920.1 -0.2 35
2019-08-01 18:00:00 26.7 9 Oeste 26 Oeste 0 920 -0.2 32
2019-08-01 17:00:00 26.4 11 Oeste 27 Oeste 0 920.2 -0.1 34
2019-08-01 16:00:00 25.6 12 Oeste 24 Oeste 0 920.3 0 36
2019-08-01 15:00:00 24.9 13 Oeste 28 Oeste 0 920.2 0 37
2019-08-01 14:00:00 24.5 9 Noroeste 19 Oeste 0 920.3 0.2 40
2019-08-01 13:00:00 22.5 4 Noroeste 14 Este 0 920.3 0.3 57
2019-08-01 12:00:00 20.4 4 Este 14 Este 0 920.2 0.5 66
2019-08-01 11:00:00 17.5 6 Sudeste 16 Este 0 920.1 0.6 71
2019-08-01 10:00:00 16.1 4 Este 8 Este 0 920 0.7 76
2019-08-01 09:00:00 12.6 2 Sudoeste 7 Noroeste 0 919.7 0.3 91
2019-08-01 08:00:00 9.4 5 Noroeste 10 Noroeste 0 919.5 -0.2 91
2019-08-01 07:00:00 9.3 4 Noroeste 8 Oeste 0 919.3 -0.6 91
2019-08-01 06:00:00 10.1 6 Noroeste 10 Oeste 0 919.4 -0.9 90
2019-08-01 05:00:00 10.3 6 Noroeste 10 Oeste 0 919.7 -0.9 89
2019-08-01 04:00:00 11.2 7 Noroeste 14 Oeste 0 919.9 -0.8 87
2019-08-01 03:00:00 12.2 6 Noroeste 22 Noroeste 0 920.3 -0.4 87
2019-08-01 02:00:00 12.8 7 Noroeste 16 Noroeste 0 920.6 -0.2 87
2019-08-01 01:00:00 13.8 8 Noroeste 17 Noroeste 0 920.7 0.2 83
2019-08-01 00:00:00 14.9 8 Noroeste 22 Oeste 0 920.7 0.1 81
2019-07-31 23:00:00 16.3 10 Oeste 23 Noroeste 0 920.8 0.2 76
2019-07-31 22:00:00 17.9 6 Oeste 15 Oeste 0 920.5 -0.2 69
2019-07-31 21:00:00 20.3 6 Oeste 21 Oeste 0 920.6 -0.3 56
2019-07-31 20:00:00 21.5 9 Oeste 21 Oeste 0 920.6 -0.9 49
2019-07-31 19:00:00 22.3 8 Oeste 22 Oeste 0 920.7 -0.8 45
2019-07-31 18:00:00 23.1 9 Noroeste 29 Oeste 0 920.9 -0.9 43
2019-07-31 17:00:00 21.7 13 Oeste 35 Oeste 0 921.5 -0.6 51
2019-07-31 16:00:00 23.5 14 Oeste 32 Oeste 0 921.5 -1 44
2019-07-31 15:00:00 22.5 9 Oeste 21 Noroeste 0 921.8 -1.3 50
2019-07-31 14:00:00 21.3 3 Sudeste 12 Nordeste 0 922.1 -1.2 44
2019-07-31 13:00:00 20.7 7 Este 21 Este 0 922.5 -0.9 47
2019-07-31 12:00:00 18.3 9 Este 18 Este 0 923.1 -0.3 53
2019-07-31 11:00:00 15.8 8 Nordeste 16 Nordeste 0 923.3 0.1 62
2019-07-31 10:00:00 14.6 6 Este 12 Nordeste 0 923.4 0.2 68
2019-07-31 09:00:00 11.4 3 Noroeste 10 Noroeste 0 923.4 0.3 81
2019-07-31 08:00:00 8 7 Noroeste 10 Noroeste 0 923.2 -0.2 90
2019-07-31 07:00:00 7.3 8 Noroeste 11 Noroeste 0 923.2 -0.5 89
2019-07-31 06:00:00 8.1 7 Noroeste 11 Noroeste 0 923.1 -0.9 88
2019-07-31 05:00:00 8.6 6 Noroeste 12 Noroeste 0 923.4 -1 86
2019-07-31 04:00:00 9.4 7 Noroeste 19 Noroeste 0 923.7 -0.8 85
2019-07-31 03:00:00 9.7 9 Noroeste 18 Oeste 0 924 -0.8 83
2019-07-31 02:00:00 10.5 7 Oeste 19 Noroeste 0 924.4 -0.4 80
2019-07-31 01:00:00 11.4 7 Oeste 19 Oeste 0 924.5 0.2 77
2019-07-31 00:00:00 12.7 9 Oeste 22 Sudoeste 0 924.8 0.8 72
2019-07-30 23:00:00 13.1 9 Oeste 17 Oeste 0 924.8 0.9 66
2019-07-30 22:00:00 14.7 8 Oeste 21 Oeste 0 924.3 0.5 58
2019-07-30 21:00:00 16.6 8 Oeste 25 Oeste 0 924 -0.4 52
2019-07-30 20:00:00 18.5 9 Oeste 27 Oeste 0 923.9 -0.8 46
2019-07-30 19:00:00 20.8 8 Noroeste 27 Noroeste 0 923.8 -1.2 39
2019-07-30 18:00:00 21.1 9 Noroeste 28 Oeste 0 924.4 -1.1 39
2019-07-30 17:00:00 20.5 11 Noroeste 22 Noroeste 0 924.7 -1.3 39
2019-07-30 16:00:00 19.8 8 Norte 22 Nordeste 0 925 -1.1 44
2019-07-30 15:00:00 19.1 9 Noroeste 20 Noroeste 0 925.5 -0.4 48
2019-07-30 14:00:00 18.4 9 Noroeste 24 Oeste 0 926 0.1 49
2019-07-30 13:00:00 17.2 7 Norte 21 Nordeste 0 926.1 0.1 50
2019-07-30 12:00:00 15.3 6 Nordeste 13 Este 0 925.9 0.4 58
2019-07-30 11:00:00 13.7 3 Noroeste 11 Nordeste 0 925.9 0.7 70
2019-07-30 10:00:00 12.1 3 Oeste 10 Oeste 0 926 0.9 77
2019-07-30 09:00:00 11.2 4 Sudoeste 13 Oeste 0 925.5 0.6 82
2019-07-30 08:00:00 8.5 4 Oeste 8 Oeste 0 925.2 0.6 91
2019-07-30 07:00:00 9.1 3 Oeste 10 Noroeste 0 925.1 0.5 84
2019-07-30 06:00:00 10.1 5 Oeste 16 Oeste 0 924.9 0.1 86
2019-07-30 05:00:00 9.8 2 Noroeste 9 Noroeste 0 924.6 0.1 89
2019-07-30 04:00:00 10.1 3 Oeste 10 Oeste 0 924.6 0.5 88
2019-07-30 03:00:00 10.1 5 Oeste 24 Oeste 0 924.8 0.8 85
2019-07-30 02:00:00 10.3 9 Oeste 17 Oeste 0 924.5 1 87
2019-07-30 01:00:00 10.2 5 Oeste 15 Oeste 0 924.1 1.4 83
2019-07-30 00:00:00 11.9 6 Oeste 23 Oeste 0 924 1.8 78
2019-07-29 23:00:00 12.4 8 Oeste 27 Oeste 0 923.5 2 73
2019-07-29 22:00:00 13.2 10 Oeste 31 Oeste 0 922.7 1.3 73
2019-07-29 21:00:00 15.1 12 Oeste 30 Oeste 0 922.2 1.1 60
2019-07-29 20:00:00 16.7 14 Oeste 31 Oeste 0 921.5 0.7 50
2019-07-29 19:00:00 17.3 13 Oeste 33 Oeste 0 921.4 0.7 52
2019-07-29 18:00:00 18.2 14 Oeste 30 Oeste 0 921.1 0.8 45
2019-07-29 17:00:00 19.1 12 Oeste 33 Oeste 0 920.8 0.6 51
2019-07-29 16:00:00 18.8 13 Oeste 35 Oeste 0 920.7 0.7 54
2019-07-29 15:00:00 20.6 13 Oeste 35 Oeste 0 920.3 0.4 44
2019-07-29 14:00:00 19.6 11 Oeste 32 Oeste 0 920.2 0.6 51
2019-07-29 13:00:00 19.8 14 Oeste 33 Oeste 0 920 1 50
2019-07-29 12:00:00 17.3 10 Oeste 30 Oeste 0 919.9 1.4 63
2019-07-29 11:00:00 15.2 8 Oeste 26 Oeste 0.4 919.6 1.6 82
2019-07-29 10:00:00 14.4 6 Oeste 26 Sudoeste 0 919 1.7 81
2019-07-29 09:00:00 14.3 8 Oeste 27 Oeste 0 918.5 1.4 82
2019-07-29 08:00:00 14 7 Oeste 26 Sudoeste 0 918 0.8 84
2019-07-29 07:00:00 14.2 8 Oeste 20 Sudoeste 0 917.3 -0.2 87
2019-07-29 06:00:00 14.3 7 Noroeste 12 Oeste 0 917.1 -0.6 68
2019-07-29 05:00:00 14.2 2 Este 8 Noroeste 0 917.2 -0.5 67
2019-07-29 04:00:00 14.4 3 Norte 9 Oeste 0 917.5 -0.3 67
2019-07-29 03:00:00 13.8 3 Sudoeste 17 Sudoeste 0 917.7 0 66
2019-07-29 02:00:00 13.1 5 Oeste 14 Noroeste 0 917.7 0.4 40
2019-07-29 01:00:00 12.7 7 Noroeste 20 Oeste 0 917.8 0.9 62
2019-07-29 00:00:00 14.8 14 Oeste 28 Oeste 0 917.7 1.3 69
2019-07-28 23:00:00 16.9 12 Oeste 27 Oeste 0 917.3 1.1 66
2019-07-28 22:00:00 19 11 Oeste 23 Oeste 0 916.9 0.8 62
2019-07-28 21:00:00 21.5 9 Oeste 24 Oeste 0 916.4 -0.1 52
2019-07-28 20:00:00 23.6 10 Oeste 24 Oeste 0 916.2 -0.8 45
2019-07-28 19:00:00 26 10 Noroeste 22 Oeste 0 916.1 -1.3 37
2019-07-28 18:00:00 25.9 11 Oeste 27 Oeste 0 916.5 -1.2 33
2019-07-28 17:00:00 25.7 10 Noroeste 28 Noroeste 0 917 -1.2 33
2019-07-28 16:00:00 24.7 10 Noroeste 27 Noroeste 0 917.4 -1.3 32
2019-07-28 15:00:00 24.2 7 Noroeste 18 Oeste 0 917.7 -1.2 41
2019-07-28 14:00:00 22.9 8 Sudeste 15 Este 0 918.2 -1 45
2019-07-28 13:00:00 21.3 6 Este 19 Este 0 918.7 -0.6 53
2019-07-28 12:00:00 19 8 Sudeste 15 Sudeste 0 918.9 -0.1 60
2019-07-28 11:00:00 16 7 Este 14 Este 0 919.2 0.2 72
2019-07-28 10:00:00 13.8 3 Noroeste 10 Este 0 919.3 0.4 82
2019-07-28 09:00:00 11.7 2 Oeste 9 Noroeste 0 919 0.1 90
2019-07-28 08:00:00 8.6 5 Noroeste 10 Noroeste 0 919 0 94
2019-07-28 07:00:00 7.7 8 Noroeste 13 Noroeste 0 918.9 -0.5 93
2019-07-28 06:00:00 8.4 6 Oeste 11 Oeste 0 918.9 -0.7 94
2019-07-28 05:00:00 8.7 8 Noroeste 11 Noroeste 0 919 -0.6 92
2019-07-28 04:00:00 9.6 5 Noroeste 14 Noroeste 0 919.4 -0.1 91
2019-07-28 03:00:00 10.6 5 Oeste 21 Oeste 0 919.6 -0.1 90
2019-07-28 02:00:00 11 6 Noroeste 20 Oeste 0 919.6 0.3 89
2019-07-28 01:00:00 11.5 7 Noroeste 19 Oeste 0 919.5 0.9 88
2019-07-28 00:00:00 12.7 7 Oeste 20 Oeste 0 919.7 1.5 84
2019-07-27 23:00:00 13.7 7 Oeste 18 Oeste 0 919.3 1.5 80
2019-07-26 12:00:00 19.5 9 Noroeste 20 Noroeste 0 921.5 -0.1 56
2019-07-26 11:00:00 17.4 7 Oeste 21 Oeste 0 921.5 0.2 70
2019-07-26 10:00:00 17.2 8 Noroeste 17 Oeste 0 921.8 0.6 73
2019-07-26 09:00:00 14.3 5 Oeste 13 Oeste 0 921.6 0.3 83
2019-07-26 08:00:00 12.6 5 Oeste 13 Noroeste 0 921.3 -0.2 91
2019-07-26 07:00:00 11.8 8 Oeste 14 Oeste 0 921.2 -0.4 91
2019-07-26 06:00:00 11.6 4 Noroeste 15 Oeste 0 921.3 -0.2 92
2019-07-26 05:00:00 10.5 4 Oeste 11 Oeste 0 921.5 -0.4 92
2019-07-26 04:00:00 10.8 6 Oeste 18 Oeste 0 921.6 -0.3 89
2019-07-26 03:00:00 11.6 10 Oeste 19 Oeste 0 921.5 -0.5 88
2019-07-26 02:00:00 13.2 6 Oeste 17 Oeste 0 921.9 0.3 88
2019-07-26 01:00:00 14 8 Oeste 19 Oeste 0 921.9 0.6 89
2019-07-26 00:00:00 13.9 3 Oeste 13 Oeste 0 922 1.1 87
2019-07-25 23:00:00 15.2 8 Oeste 20 Oeste 0 921.6 1.3 86
2019-07-25 22:00:00 15.9 8 Oeste 20 Oeste 0.2 921.3 1 86
2019-07-25 21:00:00 16.9 5 Noroeste 24 Oeste 1.4 920.9 0.7 89
2019-07-25 20:00:00 17.3 10 Oeste 31 Oeste 0 920.3 0.2 84
2019-07-25 19:00:00 17.5 12 Noroeste 31 Noroeste 0 920.3 0.5 80
2019-07-25 18:00:00 18.1 9 Noroeste 34 Oeste 0 920.2 0.6 81
2019-07-25 17:00:00 20.3 16 Oeste 36 Oeste 0 920.1 0.5 71
2019-07-25 16:00:00 24.2 9 Oeste 24 Sudoeste 0 919.8 0.4 51
2019-07-25 15:00:00 25.2 10 Sudoeste 24 Oeste 0 919.6 0.2 43
2019-07-25 14:00:00 25.7 13 Oeste 28 Oeste 0 919.6 0.5 45
2019-07-25 13:00:00 26.5 10 Sudoeste 31 Oeste 0 919.4 0.4 41
2019-07-25 12:00:00 25.2 9 Noroeste 22 Norte 0 919.4 0.4 50
2019-07-25 11:00:00 23.2 3 Noroeste 15 Noroeste 0 919.1 0.3 51
2019-07-25 10:00:00 20.8 6 Este 12 Sudeste 0 919 0.3 59
2019-07-25 09:00:00 16.9 6 Noroeste 11 Noroeste 0 919 0.5 67
2019-07-25 08:00:00 16.6 2 Nordeste 9 Noroeste 0 918.8 0.3 67
2019-07-25 07:00:00 15.3 7 Noroeste 13 Oeste 0 918.7 -0.1 70
2019-07-25 06:00:00 14.9 9 Noroeste 14 Noroeste 0 918.5 -0.4 73
2019-07-25 05:00:00 15 9 Noroeste 13 Noroeste 0 918.5 -0.7 70
2019-07-25 04:00:00 15.3 6 Noroeste 14 Noroeste 0 918.8 -0.9 68
2019-07-25 03:00:00 15.1 8 Noroeste 14 Noroeste 0 918.9 -1.1 65
2019-07-25 02:00:00 15.8 7 Noroeste 14 Noroeste 0 919.2 -0.8 60
2019-07-25 01:00:00 16.5 7 Noroeste 13 Noroeste 0 919.7 0.2 56
2019-07-25 00:00:00 18.2 6 Oeste 16 Noroeste 0 920 1.1 51
2019-07-24 23:00:00 20 10 Noroeste 17 Noroeste 0 920 1.3 46
2019-07-24 22:00:00 22.8 6 Oeste 31 Sudoeste 0 919.5 0.7 34
2019-07-24 21:00:00 25.3 14 Oeste 33 Oeste 0 918.9 -0.1 31
2019-07-24 20:00:00 27.7 15 Oeste 36 Oeste 0 918.7 -0.5 29
2019-07-24 19:00:00 30.8 16 Oeste 36 Sudoeste 0 918.8 -0.7 22
2019-07-24 18:00:00 31.9 12 Sudoeste 33 Oeste 0 919 -0.8 25
2019-07-24 17:00:00 31.9 13 Sudoeste 33 Sudoeste 0 919.2 -0.7 26
2019-07-24 16:00:00 31.4 13 Sudoeste 35 Sudoeste 0 919.5 -0.6 29
2019-07-24 15:00:00 31.6 13 Sudoeste 40 Sudoeste 0 919.8 -0.7 28
2019-07-24 14:00:00 31 16 Sudoeste 31 Sur 0 919.9 -1 30
2019-07-24 13:00:00 28.6 6 Nordeste 15 Este 0 920.1 -1.1 45
2019-07-24 12:00:00 25.5 6 Nordeste 14 Este 0 920.5 -0.6 53
2019-07-24 11:00:00 23.2 6 Este 12 Este 0 920.9 -0.2 60
2019-07-24 10:00:00 21 6 Este 12 Este 0 921.2 0.1 68
2019-07-24 09:00:00 18.8 3 Norte 7 Nordeste 0 921.1 0 74
2019-07-24 08:00:00 15.3 5 Nordeste 10 Este 0 921.1 -0.4 85
2019-07-24 07:00:00 14.6 4 Noroeste 14 Noroeste 0 921.1 -0.8 83
2019-07-24 06:00:00 13.7 9 Noroeste 15 Noroeste 0 921.1 -1 83
2019-07-24 05:00:00 14.3 7 Noroeste 17 Oeste 0 921.5 -0.9 80
2019-07-24 04:00:00 15 7 Noroeste 14 Oeste 0 921.9 -0.6 78
2019-07-24 03:00:00 15.7 8 Noroeste 15 Noroeste 0 922.1 -0.4 77
2019-07-24 02:00:00 16.2 7 Noroeste 15 Noroeste 0 922.4 -0.1 75
2019-07-24 01:00:00 16.9 6 Noroeste 14 Oeste 0 922.5 0.2 73
2019-07-24 00:00:00 18.5 7 Oeste 15 Oeste 0 922.5 0.2 67
2019-07-23 23:00:00 19.9 7 Oeste 13 Oeste 0 922.5 0.5 60
2019-07-23 22:00:00 22 8 Oeste 16 Noroeste 0 922.3 0.4 52
2019-07-23 21:00:00 24.1 10 Oeste 24 Oeste 0 922.3 0.4 44
2019-07-23 20:00:00 25.9 6 Oeste 25 Oeste 0 922 0.4 40
2019-07-23 19:00:00 27.6 10 Oeste 29 Oeste 0 921.9 0 34
2019-07-23 18:00:00 28.8 12 Oeste 31 Oeste 0 921.9 -0.1 41
2019-07-23 17:00:00 31.5 11 Oeste 31 Sudoeste 0 921.6 -0.7 35
2019-07-23 16:00:00 29.3 3 Sur 16 Nordeste 0 921.9 -0.2 33
2019-07-23 15:00:00 28.5 6 Sudeste 15 Nordeste 0 922 0.3 37
2019-07-23 14:00:00 26.1 5 Nordeste 11 Nordeste 0 922.3 0.5 48
2019-07-23 13:00:00 26.1 6 Nordeste 15 Este 0 922.1 0.5 44
2019-07-23 12:00:00 27.2 8 Este 17 Este 0 921.7 0.3 40
2019-07-23 11:00:00 26.4 8 Este 13 Este 0 921.8 0.1 45
2019-07-23 10:00:00 25.6 7 Nordeste 30 Este 0 921.6 0.1 42
2019-07-23 09:00:00 22.1 12 Este 29 Nordeste 0 921.4 -0.3 50
2019-07-23 08:00:00 22.8 15 Este 31 Este 0 921.7 -0.2 43
2019-07-23 07:00:00 22.2 14 Este 39 Este 0 921.5 -0.8 41
2019-07-23 06:00:00 19.7 4 Sudoeste 10 Sur 0 921.7 -1.4 56
2019-07-23 05:00:00 21.1 6 Noroeste 29 Este 0 921.9 -0.9 53
2019-07-23 04:00:00 23.9 13 Sudeste 38 Este 0 922.3 -0.9 35
2019-07-23 03:00:00 20.4 8 Noroeste 12 Noroeste 0 923.1 -0.1 64
2019-07-23 02:00:00 22.4 5 Nordeste 13 Nordeste 0 922.8 -0.7 47
2019-07-23 01:00:00 22.9 2 Sudoeste 9 Nordeste 0 923.2 0.3 49
2019-07-23 00:00:00 24.4 5 Noroeste 21 Sudeste 0 923.2 0.6 48
2019-07-22 23:00:00 26 12 Sudeste 26 Sudeste 0 923.5 1 42
2019-07-22 22:00:00 26.6 10 Oeste 19 Oeste 0 922.9 0.4 49
2019-07-22 21:00:00 28.3 5 Sudoeste 13 Oeste 0 922.6 -0.2 51
2019-07-22 20:00:00 30.6 6 Oeste 15 Oeste 0 922.5 -0.8 44
2019-07-22 19:00:00 33 7 Noroeste 18 Noroeste 0 922.5 -1 38
2019-07-22 18:00:00 33.5 5 Oeste 20 Oeste 0 922.8 -1 34
2019-07-22 17:00:00 33.2 7 Oeste 16 Oeste 0 923.3 -1.1 34
2019-07-22 16:00:00 32.6 6 Noroeste 12 Norte 0 923.5 -1.4 30
2019-07-22 15:00:00 31 4 Nordeste 15 Este 0 923.8 -1.4 41
2019-07-22 14:00:00 29.2 8 Este 17 Este 0 924.4 -1 47
2019-07-22 13:00:00 27.3 6 Este 14 Nordeste 0 924.9 -0.5 51
2019-07-22 12:00:00 25 8 Este 15 Este 0 925.2 -0.1 59
2019-07-22 11:00:00 22.8 4 Nordeste 12 Nordeste 0 925.4 0.1 64
2019-07-22 10:00:00 20.3 6 Este 13 Este 0 925.4 0 74
2019-07-22 09:00:00 17 4 Noroeste 14 Noroeste 0 925.3 0 87
2019-07-22 08:00:00 14 7 Noroeste 10 Noroeste 0 925.3 0 94
2019-07-22 07:00:00 13.3 6 Noroeste 9 Noroeste 0 925.4 -0.2 93
2019-07-22 06:00:00 13.3 5 Noroeste 10 Noroeste 0 925.3 -0.7 93
2019-07-22 05:00:00 13.5 7 Noroeste 11 Noroeste 0 925.3 -1 92
2019-07-22 04:00:00 13.8 6 Noroeste 9 Noroeste 0 925.6 -0.9 92
2019-07-22 03:00:00 14.3 6 Noroeste 13 Noroeste 0 926 -0.6 90
2019-07-22 02:00:00 15.5 8 Noroeste 13 Oeste 0 926.3 -0.1 88
2019-07-22 01:00:00 16.5 6 Oeste 16 Noroeste 0 926.5 0.7 86
2019-07-22 00:00:00 17.3 7 Noroeste 23 Oeste 0 926.6 1 85
2019-07-21 23:00:00 18.6 12 Oeste 26 Oeste 0 926.4 1.2 82
2019-07-21 22:00:00 20.6 12 Oeste 22 Oeste 0 925.8 0.6 74
2019-07-21 21:00:00 23 8 Oeste 26 Oeste 0 925.6 0.3 63
2019-07-21 20:00:00 25.5 10 Noroeste 24 Oeste 0 925.2 -0.4 51
2019-07-21 19:00:00 27.9 10 Oeste 24 Oeste 0 925.2 -0.5 38
2019-07-21 18:00:00 27.4 10 Noroeste 26 Noroeste 0 925.3 -0.3 40
2019-07-21 17:00:00 26.8 12 Noroeste 25 Noroeste 0 925.6 0 44
2019-07-21 16:00:00 26.5 11 Oeste 29 Oeste 0 925.7 -0.2 51
2019-07-21 15:00:00 26.2 9 Oeste 20 Oeste 0 925.6 -0.7 56
2019-07-21 14:00:00 24.8 6 Nordeste 14 Nordeste 0 925.6 -0.6 53
2019-07-21 13:00:00 23.3 5 Sudeste 14 Este 0 925.9 -0.2 58
2019-07-21 12:00:00 20.7 4 Nordeste 10 Sudeste 0 926.3 0.5 70
2019-07-21 11:00:00 16.5 5 Este 14 Nordeste 0 926.2 0.8 85
2019-07-21 10:00:00 14.9 3 Oeste 8 Oeste 0 926.1 1 92
2019-07-21 09:00:00 13.2 4 Noroeste 9 Noroeste 0 925.8 0.7 94
2019-07-21 08:00:00 12.5 5 Noroeste 12 Oeste 0 925.4 0.4 94
2019-07-21 07:00:00 13 6 Noroeste 13 Noroeste 0 925.1 0 93
2019-07-21 06:00:00 13 6 Noroeste 13 Oeste 0 925.1 0.1 92
2019-07-21 05:00:00 13.3 5 Noroeste 16 Noroeste 0 925 0 90
2019-07-21 04:00:00 14.7 8 Oeste 17 Noroeste 0 925.1 0 92
2019-07-21 03:00:00 14 8 Noroeste 15 Noroeste 0 925 -0.4 93
2019-07-21 02:00:00 14.7 6 Oeste 19 Oeste 0 925 0.1 90
2019-07-21 01:00:00 15.3 9 Noroeste 21 Oeste 0 925.1 1.2 87
2019-07-21 00:00:00 16.7 11 Oeste 28 Oeste 0 925.4 2 82